sensor_id;sensor_type;location;lat;lon;timestamp;temperature;humidity
17331;DHT22;8783;52.448;4.638;2024-02-26T00:01:21;6.40;99.90
17331;DHT22;8783;52.448;4.638;2024-02-26T00:03:47;6.40;99.90
17331;DHT22;8783;52.448;4.638;2024-02-26T00:06:15;6.40;99.90
17331;DHT22;8783;52.448;4.638;2024-02-26T00:08:52;6.40;99.90
17331;DHT22;8783;52.448;4.638;2024-02-26T00:11:18;6.40;99.90
17331;DHT22;8783;52.448;4.638;2024-02-26T00:13:44;6.30;99.90
17331;DHT22;8783;52.448;4.638;2024-02-26T00:16:09;6.40;99.90
17331;DHT22;8783;52.448;4.638;2024-02-26T00:18:38;6.30;99.90
17331;DHT22;8783;52.448;4.638;2024-02-26T00:21:09;6.30;99.90
17331;DHT22;8783;52.448;4.638;2024-02-26T00:23:38;6.30;99.90
17331;DHT22;8783;52.448;4.638;2024-02-26T00:26:03;6.30;99.90
17331;DHT22;8783;52.448;4.638;2024-02-26T00:28:31;6.30;99.90
17331;DHT22;8783;52.448;4.638;2024-02-26T00:31:03;6.30;99.90
17331;DHT22;8783;52.448;4.638;2024-02-26T00:33:29;6.30;99.90
17331;DHT22;8783;52.448;4.638;2024-02-26T00:35:54;6.30;99.90
17331;DHT22;8783;52.448;4.638;2024-02-26T00:38:23;6.30;99.90
17331;DHT22;8783;52.448;4.638;2024-02-26T00:40:49;6.30;99.90
17331;DHT22;8783;52.448;4.638;2024-02-26T00:43:15;6.30;99.90
17331;DHT22;8783;52.448;4.638;2024-02-26T00:45:40;6.30;99.90
17331;DHT22;8783;52.448;4.638;2024-02-26T00:48:06;6.30;99.90
17331;DHT22;8783;52.448;4.638;2024-02-26T00:50:35;6.30;99.90
17331;DHT22;8783;52.448;4.638;2024-02-26T00:53:01;6.20;99.90
17331;DHT22;8783;52.448;4.638;2024-02-26T00:55:30;6.30;99.90
17331;DHT22;8783;52.448;4.638;2024-02-26T00:57:58;6.30;99.90
17331;DHT22;8783;52.448;4.638;2024-02-26T01:00:27;6.30;99.90
17331;DHT22;8783;52.448;4.638;2024-02-26T01:02:52;6.30;99.90
17331;DHT22;8783;52.448;4.638;2024-02-26T01:05:24;6.30;99.90
17331;DHT22;8783;52.448;4.638;2024-02-26T01:07:53;6.20;99.90
17331;DHT22;8783;52.448;4.638;2024-02-26T01:10:24;6.20;99.90
17331;DHT22;8783;52.448;4.638;2024-02-26T01:12:50;6.20;99.90
17331;DHT22;8783;52.448;4.638;2024-02-26T01:15:22;6.20;99.90
17331;DHT22;8783;52.448;4.638;2024-02-26T01:17:52;6.20;99.90
17331;DHT22;8783;52.448;4.638;2024-02-26T01:20:18;6.20;99.90
17331;DHT22;8783;52.448;4.638;2024-02-26T01:22:44;6.20;99.90
17331;DHT22;8783;52.448;4.638;2024-02-26T01:25:13;6.20;99.90
17331;DHT22;8783;52.448;4.638;2024-02-26T01:27:39;6.20;99.90
17331;DHT22;8783;52.448;4.638;2024-02-26T01:30:08;6.20;99.90
17331;DHT22;8783;52.448;4.638;2024-02-26T01:32:36;6.20;99.90
17331;DHT22;8783;52.448;4.638;2024-02-26T01:35:05;6.20;99.90
17331;DHT22;8783;52.448;4.638;2024-02-26T01:37:36;6.10;99.90
17331;DHT22;8783;52.448;4.638;2024-02-26T01:40:02;6.20;99.90
17331;DHT22;8783;52.448;4.638;2024-02-26T01:42:32;6.10;99.90
17331;DHT22;8783;52.448;4.638;2024-02-26T01:44:58;6.10;99.90
17331;DHT22;8783;52.448;4.638;2024-02-26T01:47:36;6.10;99.90
17331;DHT22;8783;52.448;4.638;2024-02-26T01:50:05;6.10;99.90
17331;DHT22;8783;52.448;4.638;2024-02-26T01:52:31;6.10;99.90
17331;DHT22;8783;52.448;4.638;2024-02-26T01:55:01;6.10;99.90
17331;DHT22;8783;52.448;4.638;2024-02-26T01:57:28;6.10;99.90
17331;DHT22;8783;52.448;4.638;2024-02-26T01:59:55;6.10;99.90
17331;DHT22;8783;52.448;4.638;2024-02-26T02:02:23;6.10;99.90
17331;DHT22;8783;52.448;4.638;2024-02-26T02:04:58;6.10;99.90
17331;DHT22;8783;52.448;4.638;2024-02-26T02:07:27;6.10;99.90
17331;DHT22;8783;52.448;4.638;2024-02-26T02:10:00;6.10;99.90
17331;DHT22;8783;52.448;4.638;2024-02-26T02:12:28;6.10;99.90
17331;DHT22;8783;52.448;4.638;2024-02-26T02:14:54;6.10;99.90
17331;DHT22;8783;52.448;4.638;2024-02-26T02:17:26;6.10;99.90
17331;DHT22;8783;52.448;4.638;2024-02-26T02:19:55;6.10;99.90
17331;DHT22;8783;52.448;4.638;2024-02-26T02:22:24;6.10;99.90
17331;DHT22;8783;52.448;4.638;2024-02-26T02:24:52;6.10;99.90
17331;DHT22;8783;52.448;4.638;2024-02-26T02:27:28;6.10;99.90
17331;DHT22;8783;52.448;4.638;2024-02-26T02:30:00;6.10;99.90
17331;DHT22;8783;52.448;4.638;2024-02-26T02:32:26;6.10;99.90
17331;DHT22;8783;52.448;4.638;2024-02-26T02:34:54;6.10;99.90
17331;DHT22;8783;52.448;4.638;2024-02-26T02:37:20;6.10;99.90
17331;DHT22;8783;52.448;4.638;2024-02-26T02:39:52;6.10;99.90
17331;DHT22;8783;52.448;4.638;2024-02-26T02:42:20;6.00;99.90
17331;DHT22;8783;52.448;4.638;2024-02-26T02:44:49;6.00;99.90
17331;DHT22;8783;52.448;4.638;2024-02-26T02:47:17;6.00;99.90
17331;DHT22;8783;52.448;4.638;2024-02-26T02:49:46;6.00;99.90
17331;DHT22;8783;52.448;4.638;2024-02-26T02:52:14;6.00;99.90
17331;DHT22;8783;52.448;4.638;2024-02-26T02:54:45;6.00;99.90
17331;DHT22;8783;52.448;4.638;2024-02-26T02:57:17;6.00;99.90
17331;DHT22;8783;52.448;4.638;2024-02-26T02:59:43;6.00;99.90
17331;DHT22;8783;52.448;4.638;2024-02-26T03:02:12;6.00;99.90
17331;DHT22;8783;52.448;4.638;2024-02-26T03:04:40;6.00;99.90
17331;DHT22;8783;52.448;4.638;2024-02-26T03:07:09;6.00;99.90
17331;DHT22;8783;52.448;4.638;2024-02-26T03:09:37;6.00;99.90
17331;DHT22;8783;52.448;4.638;2024-02-26T03:12:06;6.00;99.90
17331;DHT22;8783;52.448;4.638;2024-02-26T03:14:35;6.00;99.90
17331;DHT22;8783;52.448;4.638;2024-02-26T03:17:03;6.00;99.90
17331;DHT22;8783;52.448;4.638;2024-02-26T03:19:32;6.00;99.90
17331;DHT22;8783;52.448;4.638;2024-02-26T03:22:00;6.00;99.90
17331;DHT22;8783;52.448;4.638;2024-02-26T03:24:26;6.00;99.90
17331;DHT22;8783;52.448;4.638;2024-02-26T03:26:54;6.00;99.90
17331;DHT22;8783;52.448;4.638;2024-02-26T03:29:20;6.00;99.90
17331;DHT22;8783;52.448;4.638;2024-02-26T03:31:51;6.00;99.90
17331;DHT22;8783;52.448;4.638;2024-02-26T03:34:19;5.90;99.90
17331;DHT22;8783;52.448;4.638;2024-02-26T03:36:51;6.00;99.90
17331;DHT22;8783;52.448;4.638;2024-02-26T03:39:17;5.90;99.90
17331;DHT22;8783;52.448;4.638;2024-02-26T03:41:42;5.90;99.90
17331;DHT22;8783;52.448;4.638;2024-02-26T03:44:08;5.90;99.90
17331;DHT22;8783;52.448;4.638;2024-02-26T03:46:33;5.90;99.90
17331;DHT22;8783;52.448;4.638;2024-02-26T03:49:02;5.90;99.90
17331;DHT22;8783;52.448;4.638;2024-02-26T03:51:31;5.90;99.90
17331;DHT22;8783;52.448;4.638;2024-02-26T03:53:58;5.90;99.90
17331;DHT22;8783;52.448;4.638;2024-02-26T03:56:24;5.90;99.90
17331;DHT22;8783;52.448;4.638;2024-02-26T03:58:49;5.90;99.90
17331;DHT22;8783;52.448;4.638;2024-02-26T04:01:15;5.90;99.90
17331;DHT22;8783;52.448;4.638;2024-02-26T04:03:43;5.90;99.90
17331;DHT22;8783;52.448;4.638;2024-02-26T04:06:12;5.90;99.90
17331;DHT22;8783;52.448;4.638;2024-02-26T04:08:43;5.90;99.90
17331;DHT22;8783;52.448;4.638;2024-02-26T04:11:11;5.90;99.90
17331;DHT22;8783;52.448;4.638;2024-02-26T04:13:46;5.90;99.90
17331;DHT22;8783;52.448;4.638;2024-02-26T04:16:15;5.90;99.90
17331;DHT22;8783;52.448;4.638;2024-02-26T04:18:46;5.90;99.90
17331;DHT22;8783;52.448;4.638;2024-02-26T04:21:15;5.90;99.90
17331;DHT22;8783;52.448;4.638;2024-02-26T04:23:47;5.90;99.90
17331;DHT22;8783;52.448;4.638;2024-02-26T04:26:14;5.90;99.90
17331;DHT22;8783;52.448;4.638;2024-02-26T04:28:40;5.90;99.90
17331;DHT22;8783;52.448;4.638;2024-02-26T04:31:05;5.90;99.90
17331;DHT22;8783;52.448;4.638;2024-02-26T04:33:34;5.90;99.90
17331;DHT22;8783;52.448;4.638;2024-02-26T04:36:05;5.90;99.90
17331;DHT22;8783;52.448;4.638;2024-02-26T04:38:31;5.90;99.90
17331;DHT22;8783;52.448;4.638;2024-02-26T04:40:59;5.90;99.90
17331;DHT22;8783;52.448;4.638;2024-02-26T04:43:28;5.90;99.90
17331;DHT22;8783;52.448;4.638;2024-02-26T04:45:54;5.80;99.90
17331;DHT22;8783;52.448;4.638;2024-02-26T04:48:22;5.90;99.90
17331;DHT22;8783;52.448;4.638;2024-02-26T04:50:51;5.80;99.90
17331;DHT22;8783;52.448;4.638;2024-02-26T04:53:22;5.80;99.90
17331;DHT22;8783;52.448;4.638;2024-02-26T04:55:51;5.80;99.90
17331;DHT22;8783;52.448;4.638;2024-02-26T04:58:22;5.80;99.90
17331;DHT22;8783;52.448;4.638;2024-02-26T05:00:48;5.80;99.90
17331;DHT22;8783;52.448;4.638;2024-02-26T05:03:14;5.90;99.90
17331;DHT22;8783;52.448;4.638;2024-02-26T05:05:44;5.80;99.90
17331;DHT22;8783;52.448;4.638;2024-02-26T05:08:15;5.80;99.90
17331;DHT22;8783;52.448;4.638;2024-02-26T05:10:41;5.80;99.90
17331;DHT22;8783;52.448;4.638;2024-02-26T05:13:11;5.80;99.90
17331;DHT22;8783;52.448;4.638;2024-02-26T05:15:44;5.80;99.90
17331;DHT22;8783;52.448;4.638;2024-02-26T05:18:15;5.80;99.90
17331;DHT22;8783;52.448;4.638;2024-02-26T05:20:43;5.80;99.90
17331;DHT22;8783;52.448;4.638;2024-02-26T05:23:09;5.80;99.90
17331;DHT22;8783;52.448;4.638;2024-02-26T05:25:38;5.80;99.90
17331;DHT22;8783;52.448;4.638;2024-02-26T05:28:04;5.80;99.90
17331;DHT22;8783;52.448;4.638;2024-02-26T05:30:32;5.80;99.90
17331;DHT22;8783;52.448;4.638;2024-02-26T05:33:01;5.80;99.90
17331;DHT22;8783;52.448;4.638;2024-02-26T05:35:29;5.80;99.90
17331;DHT22;8783;52.448;4.638;2024-02-26T05:37:58;5.80;99.90
17331;DHT22;8783;52.448;4.638;2024-02-26T05:40:24;5.80;99.90
17331;DHT22;8783;52.448;4.638;2024-02-26T05:42:49;5.80;99.90
17331;DHT22;8783;52.448;4.638;2024-02-26T05:45:18;5.80;99.90
17331;DHT22;8783;52.448;4.638;2024-02-26T05:47:44;5.80;99.90
17331;DHT22;8783;52.448;4.638;2024-02-26T05:50:10;5.80;99.90
17331;DHT22;8783;52.448;4.638;2024-02-26T05:52:47;5.80;99.90
17331;DHT22;8783;52.448;4.638;2024-02-26T05:55:16;5.80;99.90
17331;DHT22;8783;52.448;4.638;2024-02-26T05:57:41;5.80;99.90
17331;DHT22;8783;52.448;4.638;2024-02-26T06:00:07;5.80;99.90
17331;DHT22;8783;52.448;4.638;2024-02-26T06:02:40;5.80;99.90
17331;DHT22;8783;52.448;4.638;2024-02-26T06:05:06;5.80;99.90
17331;DHT22;8783;52.448;4.638;2024-02-26T06:07:34;5.80;99.90
17331;DHT22;8783;52.448;4.638;2024-02-26T06:10:01;5.80;99.90
17331;DHT22;8783;52.448;4.638;2024-02-26T06:12:29;5.70;99.90
17331;DHT22;8783;52.448;4.638;2024-02-26T06:14:56;5.80;99.90
17331;DHT22;8783;52.448;4.638;2024-02-26T06:17:22;5.70;99.90
17331;DHT22;8783;52.448;4.638;2024-02-26T06:19:47;5.80;99.90
17331;DHT22;8783;52.448;4.638;2024-02-26T06:22:13;5.80;99.90
17331;DHT22;8783;52.448;4.638;2024-02-26T06:24:39;5.80;99.90
17331;DHT22;8783;52.448;4.638;2024-02-26T06:27:05;5.80;99.90
17331;DHT22;8783;52.448;4.638;2024-02-26T06:29:30;5.80;99.90
17331;DHT22;8783;52.448;4.638;2024-02-26T06:31:56;5.70;99.90
17331;DHT22;8783;52.448;4.638;2024-02-26T06:34:22;5.70;99.90
17331;DHT22;8783;52.448;4.638;2024-02-26T06:36:47;5.70;99.90
17331;DHT22;8783;52.448;4.638;2024-02-26T06:39:13;5.70;99.90
17331;DHT22;8783;52.448;4.638;2024-02-26T06:41:40;5.70;99.90
17331;DHT22;8783;52.448;4.638;2024-02-26T06:44:06;5.70;99.90
17331;DHT22;8783;52.448;4.638;2024-02-26T06:46:34;5.70;99.90
17331;DHT22;8783;52.448;4.638;2024-02-26T06:49:00;5.70;99.90
17331;DHT22;8783;52.448;4.638;2024-02-26T06:51:28;5.70;99.90
17331;DHT22;8783;52.448;4.638;2024-02-26T06:53:54;5.70;99.90
17331;DHT22;8783;52.448;4.638;2024-02-26T06:56:20;5.70;99.90
17331;DHT22;8783;52.448;4.638;2024-02-26T06:58:45;5.70;99.90
17331;DHT22;8783;52.448;4.638;2024-02-26T07:01:12;5.70;99.90
17331;DHT22;8783;52.448;4.638;2024-02-26T07:03:39;5.70;99.90
17331;DHT22;8783;52.448;4.638;2024-02-26T07:06:05;5.70;99.90
17331;DHT22;8783;52.448;4.638;2024-02-26T07:08:31;5.70;99.90
17331;DHT22;8783;52.448;4.638;2024-02-26T07:10:56;5.70;99.90
17331;DHT22;8783;52.448;4.638;2024-02-26T07:13:22;5.70;99.90
17331;DHT22;8783;52.448;4.638;2024-02-26T07:15:47;5.70;99.90
17331;DHT22;8783;52.448;4.638;2024-02-26T07:18:13;5.80;99.90
17331;DHT22;8783;52.448;4.638;2024-02-26T07:20:42;5.70;99.90
17331;DHT22;8783;52.448;4.638;2024-02-26T07:23:07;5.70;99.90
17331;DHT22;8783;52.448;4.638;2024-02-26T07:25:36;5.70;99.90
17331;DHT22;8783;52.448;4.638;2024-02-26T07:28:02;5.70;99.90
17331;DHT22;8783;52.448;4.638;2024-02-26T07:30:27;5.70;99.90
17331;DHT22;8783;52.448;4.638;2024-02-26T07:32:53;5.70;99.90
17331;DHT22;8783;52.448;4.638;2024-02-26T07:35:18;5.70;99.90
17331;DHT22;8783;52.448;4.638;2024-02-26T07:37:46;5.70;99.90
17331;DHT22;8783;52.448;4.638;2024-02-26T07:40:13;5.70;99.90
17331;DHT22;8783;52.448;4.638;2024-02-26T07:42:41;5.80;99.90
17331;DHT22;8783;52.448;4.638;2024-02-26T07:45:07;5.80;99.90
17331;DHT22;8783;52.448;4.638;2024-02-26T07:47:32;5.80;99.90
17331;DHT22;8783;52.448;4.638;2024-02-26T07:50:00;5.80;99.90
17331;DHT22;8783;52.448;4.638;2024-02-26T07:52:25;5.90;99.90
17331;DHT22;8783;52.448;4.638;2024-02-26T07:54:51;5.90;99.90
17331;DHT22;8783;52.448;4.638;2024-02-26T07:57:16;5.80;99.90
17331;DHT22;8783;52.448;4.638;2024-02-26T07:59:42;5.90;99.90
17331;DHT22;8783;52.448;4.638;2024-02-26T08:02:10;5.90;99.90
17331;DHT22;8783;52.448;4.638;2024-02-26T08:04:35;5.90;99.90
17331;DHT22;8783;52.448;4.638;2024-02-26T08:07:01;5.90;99.90
17331;DHT22;8783;52.448;4.638;2024-02-26T08:09:27;5.90;99.90
17331;DHT22;8783;52.448;4.638;2024-02-26T08:11:53;5.90;99.90
17331;DHT22;8783;52.448;4.638;2024-02-26T08:14:18;5.90;99.90
17331;DHT22;8783;52.448;4.638;2024-02-26T08:16:44;6.00;99.90
17331;DHT22;8783;52.448;4.638;2024-02-26T08:19:10;6.00;99.90
17331;DHT22;8783;52.448;4.638;2024-02-26T08:21:38;6.00;99.90
17331;DHT22;8783;52.448;4.638;2024-02-26T08:24:04;6.00;99.90
17331;DHT22;8783;52.448;4.638;2024-02-26T08:26:30;6.00;99.90
17331;DHT22;8783;52.448;4.638;2024-02-26T08:28:55;6.00;99.90
17331;DHT22;8783;52.448;4.638;2024-02-26T08:31:21;6.00;99.90
17331;DHT22;8783;52.448;4.638;2024-02-26T08:33:48;6.00;99.90
17331;DHT22;8783;52.448;4.638;2024-02-26T08:36:14;6.00;99.90
17331;DHT22;8783;52.448;4.638;2024-02-26T08:38:40;6.00;99.90
17331;DHT22;8783;52.448;4.638;2024-02-26T08:41:05;6.10;99.90
17331;DHT22;8783;52.448;4.638;2024-02-26T08:43:31;6.10;99.90
17331;DHT22;8783;52.448;4.638;2024-02-26T08:45:57;6.10;99.90
17331;DHT22;8783;52.448;4.638;2024-02-26T08:48:23;6.10;99.90
17331;DHT22;8783;52.448;4.638;2024-02-26T08:50:48;6.10;99.90
17331;DHT22;8783;52.448;4.638;2024-02-26T08:53:14;6.10;99.90
17331;DHT22;8783;52.448;4.638;2024-02-26T08:55:40;6.10;99.90
17331;DHT22;8783;52.448;4.638;2024-02-26T08:58:05;6.10;99.90
17331;DHT22;8783;52.448;4.638;2024-02-26T09:00:31;6.10;99.90
17331;DHT22;8783;52.448;4.638;2024-02-26T09:02:57;6.10;99.90
17331;DHT22;8783;52.448;4.638;2024-02-26T09:05:22;6.10;99.90
17331;DHT22;8783;52.448;4.638;2024-02-26T09:07:48;6.10;99.90
17331;DHT22;8783;52.448;4.638;2024-02-26T09:10:13;6.20;99.90
17331;DHT22;8783;52.448;4.638;2024-02-26T09:12:39;6.20;99.90
17331;DHT22;8783;52.448;4.638;2024-02-26T09:15:06;6.20;99.90
17331;DHT22;8783;52.448;4.638;2024-02-26T09:17:32;6.20;99.90
17331;DHT22;8783;52.448;4.638;2024-02-26T09:19:58;6.20;99.90
17331;DHT22;8783;52.448;4.638;2024-02-26T09:22:24;6.20;99.90
17331;DHT22;8783;52.448;4.638;2024-02-26T09:24:49;6.20;99.90
17331;DHT22;8783;52.448;4.638;2024-02-26T09:27:16;6.20;99.90
17331;DHT22;8783;52.448;4.638;2024-02-26T09:29:42;6.20;99.90
17331;DHT22;8783;52.448;4.638;2024-02-26T09:32:08;6.20;99.90
17331;DHT22;8783;52.448;4.638;2024-02-26T09:34:34;6.20;99.90
17331;DHT22;8783;52.448;4.638;2024-02-26T09:36:59;6.20;99.90
17331;DHT22;8783;52.448;4.638;2024-02-26T09:39:26;6.20;99.90
17331;DHT22;8783;52.448;4.638;2024-02-26T09:41:53;6.30;99.90
17331;DHT22;8783;52.448;4.638;2024-02-26T09:44:19;6.30;99.90
17331;DHT22;8783;52.448;4.638;2024-02-26T09:46:48;6.30;99.90
17331;DHT22;8783;52.448;4.638;2024-02-26T09:49:19;6.30;99.90
17331;DHT22;8783;52.448;4.638;2024-02-26T09:51:45;6.30;99.90
17331;DHT22;8783;52.448;4.638;2024-02-26T09:54:12;6.30;99.90
17331;DHT22;8783;52.448;4.638;2024-02-26T09:56:39;6.30;99.90
17331;DHT22;8783;52.448;4.638;2024-02-26T09:59:17;6.30;99.90
17331;DHT22;8783;52.448;4.638;2024-02-26T10:01:44;6.30;99.90
17331;DHT22;8783;52.448;4.638;2024-02-26T10:04:10;6.30;99.90
17331;DHT22;8783;52.448;4.638;2024-02-26T10:06:37;6.40;99.90
17331;DHT22;8783;52.448;4.638;2024-02-26T10:09:03;6.40;99.90
17331;DHT22;8783;52.448;4.638;2024-02-26T10:11:32;6.40;99.90
17331;DHT22;8783;52.448;4.638;2024-02-26T10:13:58;6.50;99.90
17331;DHT22;8783;52.448;4.638;2024-02-26T10:16:25;6.40;99.90
17331;DHT22;8783;52.448;4.638;2024-02-26T10:18:54;6.50;99.90
17331;DHT22;8783;52.448;4.638;2024-02-26T10:21:21;6.50;99.90
17331;DHT22;8783;52.448;4.638;2024-02-26T10:23:47;6.50;99.90
17331;DHT22;8783;52.448;4.638;2024-02-26T10:26:14;6.50;99.90
17331;DHT22;8783;52.448;4.638;2024-02-26T10:28:41;6.50;99.90
17331;DHT22;8783;52.448;4.638;2024-02-26T10:31:08;6.60;99.90
17331;DHT22;8783;52.448;4.638;2024-02-26T10:33:35;6.60;99.90
17331;DHT22;8783;52.448;4.638;2024-02-26T10:36:04;6.60;99.90
17331;DHT22;8783;52.448;4.638;2024-02-26T10:38:32;6.60;99.90
17331;DHT22;8783;52.448;4.638;2024-02-26T10:40:58;6.60;99.90
17331;DHT22;8783;52.448;4.638;2024-02-26T10:43:25;6.70;99.90
17331;DHT22;8783;52.448;4.638;2024-02-26T10:45:50;6.70;99.90
17331;DHT22;8783;52.448;4.638;2024-02-26T10:48:16;6.70;99.90
17331;DHT22;8783;52.448;4.638;2024-02-26T10:50:43;6.70;99.90
17331;DHT22;8783;52.448;4.638;2024-02-26T10:53:20;6.70;99.90
17331;DHT22;8783;52.448;4.638;2024-02-26T10:55:57;6.70;99.90
17331;DHT22;8783;52.448;4.638;2024-02-26T10:58:25;6.80;99.90
17331;DHT22;8783;52.448;4.638;2024-02-26T11:00:52;6.80;99.90
17331;DHT22;8783;52.448;4.638;2024-02-26T11:03:18;6.80;99.90
17331;DHT22;8783;52.448;4.638;2024-02-26T11:05:51;6.80;99.90
17331;DHT22;8783;52.448;4.638;2024-02-26T11:08:19;6.80;99.90
17331;DHT22;8783;52.448;4.638;2024-02-26T11:10:52;6.80;99.90
17331;DHT22;8783;52.448;4.638;2024-02-26T11:13:19;6.80;99.90
17331;DHT22;8783;52.448;4.638;2024-02-26T11:15:46;6.90;99.90
17331;DHT22;8783;52.448;4.638;2024-02-26T11:18:15;6.90;99.90
17331;DHT22;8783;52.448;4.638;2024-02-26T11:20:42;6.90;99.90
17331;DHT22;8783;52.448;4.638;2024-02-26T11:23:08;6.90;99.90
17331;DHT22;8783;52.448;4.638;2024-02-26T11:25:35;6.90;99.90
17331;DHT22;8783;52.448;4.638;2024-02-26T11:28:05;7.00;99.90
17331;DHT22;8783;52.448;4.638;2024-02-26T11:30:36;6.90;99.90
17331;DHT22;8783;52.448;4.638;2024-02-26T11:33:08;7.00;99.90
17331;DHT22;8783;52.448;4.638;2024-02-26T11:35:35;7.00;99.90
17331;DHT22;8783;52.448;4.638;2024-02-26T11:38:01;7.00;99.90
17331;DHT22;8783;52.448;4.638;2024-02-26T11:40:28;7.00;99.90
17331;DHT22;8783;52.448;4.638;2024-02-26T11:42:54;7.00;99.90
17331;DHT22;8783;52.448;4.638;2024-02-26T11:48:04;7.10;99.90
17331;DHT22;8783;52.448;4.638;2024-02-26T11:50:41;7.10;99.90
17331;DHT22;8783;52.448;4.638;2024-02-26T11:58:42;7.10;99.90
17331;DHT22;8783;52.448;4.638;2024-02-26T12:01:45;7.10;99.90
17331;DHT22;8783;52.448;4.638;2024-02-26T12:04:23;7.10;99.90
17331;DHT22;8783;52.448;4.638;2024-02-26T12:07:01;7.10;99.90
17331;DHT22;8783;52.448;4.638;2024-02-26T12:12:06;7.20;99.90
17331;DHT22;8783;52.448;4.638;2024-02-26T12:14:38;7.20;99.90
17331;DHT22;8783;52.448;4.638;2024-02-26T12:17:04;7.20;99.90
17331;DHT22;8783;52.448;4.638;2024-02-26T12:19:35;7.20;99.90
17331;DHT22;8783;52.448;4.638;2024-02-26T12:22:02;7.20;99.90
17331;DHT22;8783;52.448;4.638;2024-02-26T12:24:27;7.20;99.90
17331;DHT22;8783;52.448;4.638;2024-02-26T12:26:53;7.20;99.90
17331;DHT22;8783;52.448;4.638;2024-02-26T12:29:19;7.20;99.90
17331;DHT22;8783;52.448;4.638;2024-02-26T12:31:45;7.30;99.90
17331;DHT22;8783;52.448;4.638;2024-02-26T12:34:15;7.30;99.90
17331;DHT22;8783;52.448;4.638;2024-02-26T12:36:42;7.30;99.90
17331;DHT22;8783;52.448;4.638;2024-02-26T12:39:10;7.30;99.90
17331;DHT22;8783;52.448;4.638;2024-02-26T12:41:38;7.30;99.90
17331;DHT22;8783;52.448;4.638;2024-02-26T12:44:04;7.30;99.90
17331;DHT22;8783;52.448;4.638;2024-02-26T12:46:32;7.30;99.90
17331;DHT22;8783;52.448;4.638;2024-02-26T12:48:58;7.30;99.90
17331;DHT22;8783;52.448;4.638;2024-02-26T12:51:25;7.30;99.90
17331;DHT22;8783;52.448;4.638;2024-02-26T12:53:52;7.40;99.90
17331;DHT22;8783;52.448;4.638;2024-02-26T12:56:19;7.40;99.90
17331;DHT22;8783;52.448;4.638;2024-02-26T12:58:45;7.40;99.90
17331;DHT22;8783;52.448;4.638;2024-02-26T13:01:14;7.40;99.90
17331;DHT22;8783;52.448;4.638;2024-02-26T13:03:42;7.40;99.90
17331;DHT22;8783;52.448;4.638;2024-02-26T13:06:08;7.40;99.90
17331;DHT22;8783;52.448;4.638;2024-02-26T13:08:34;7.40;99.90
17331;DHT22;8783;52.448;4.638;2024-02-26T13:11:00;7.40;99.90
17331;DHT22;8783;52.448;4.638;2024-02-26T13:13:26;7.40;99.90
17331;DHT22;8783;52.448;4.638;2024-02-26T13:16:09;7.40;99.90
17331;DHT22;8783;52.448;4.638;2024-02-26T13:18:35;7.50;99.90
17331;DHT22;8783;52.448;4.638;2024-02-26T13:21:09;7.50;99.90
17331;DHT22;8783;52.448;4.638;2024-02-26T13:23:35;7.50;99.90
17331;DHT22;8783;52.448;4.638;2024-02-26T13:26:00;7.50;99.90
17331;DHT22;8783;52.448;4.638;2024-02-26T13:28:26;7.50;99.90
17331;DHT22;8783;52.448;4.638;2024-02-26T13:30:57;7.50;99.90
17331;DHT22;8783;52.448;4.638;2024-02-26T13:33:24;7.50;99.90
17331;DHT22;8783;52.448;4.638;2024-02-26T13:35:51;7.60;99.90
17331;DHT22;8783;52.448;4.638;2024-02-26T13:38:18;7.60;99.90
17331;DHT22;8783;52.448;4.638;2024-02-26T13:40:44;7.60;99.90
17331;DHT22;8783;52.448;4.638;2024-02-26T13:43:12;7.60;99.90
17331;DHT22;8783;52.448;4.638;2024-02-26T13:45:38;7.60;99.90
17331;DHT22;8783;52.448;4.638;2024-02-26T13:48:07;7.60;99.90
17331;DHT22;8783;52.448;4.638;2024-02-26T13:50:33;7.60;99.90
17331;DHT22;8783;52.448;4.638;2024-02-26T13:52:58;7.60;99.90
17331;DHT22;8783;52.448;4.638;2024-02-26T13:55:28;7.60;99.90
17331;DHT22;8783;52.448;4.638;2024-02-26T13:57:56;7.60;99.90
17331;DHT22;8783;52.448;4.638;2024-02-26T14:00:22;7.60;99.90
17331;DHT22;8783;52.448;4.638;2024-02-26T14:02:50;7.60;99.90
17331;DHT22;8783;52.448;4.638;2024-02-26T14:05:15;7.70;99.90
17331;DHT22;8783;52.448;4.638;2024-02-26T14:07:41;7.70;99.90
17331;DHT22;8783;52.448;4.638;2024-02-26T14:10:08;7.70;99.90
17331;DHT22;8783;52.448;4.638;2024-02-26T14:12:37;7.70;99.90
17331;DHT22;8783;52.448;4.638;2024-02-26T14:15:03;7.70;99.90
17331;DHT22;8783;52.448;4.638;2024-02-26T14:17:30;7.70;99.90
17331;DHT22;8783;52.448;4.638;2024-02-26T14:19:56;7.70;99.90
17331;DHT22;8783;52.448;4.638;2024-02-26T14:22:22;7.70;99.90
17331;DHT22;8783;52.448;4.638;2024-02-26T14:24:47;7.70;99.90
17331;DHT22;8783;52.448;4.638;2024-02-26T14:27:15;7.70;99.90
17331;DHT22;8783;52.448;4.638;2024-02-26T14:29:43;7.70;99.90
17331;DHT22;8783;52.448;4.638;2024-02-26T14:32:10;7.70;99.90
17331;DHT22;8783;52.448;4.638;2024-02-26T14:34:36;7.70;99.90
17331;DHT22;8783;52.448;4.638;2024-02-26T14:37:05;7.70;99.90
17331;DHT22;8783;52.448;4.638;2024-02-26T14:39:33;7.70;99.90
17331;DHT22;8783;52.448;4.638;2024-02-26T14:42:00;7.70;99.90
17331;DHT22;8783;52.448;4.638;2024-02-26T14:44:28;7.70;99.90
17331;DHT22;8783;52.448;4.638;2024-02-26T14:46:57;7.70;99.90
17331;DHT22;8783;52.448;4.638;2024-02-26T14:49:23;7.80;99.90
17331;DHT22;8783;52.448;4.638;2024-02-26T14:51:49;7.70;99.90
17331;DHT22;8783;52.448;4.638;2024-02-26T14:54:14;7.70;99.90
17331;DHT22;8783;52.448;4.638;2024-02-26T14:56:40;7.70;99.90
17331;DHT22;8783;52.448;4.638;2024-02-26T14:59:06;7.70;99.90
17331;DHT22;8783;52.448;4.638;2024-02-26T15:01:32;7.70;99.90
17331;DHT22;8783;52.448;4.638;2024-02-26T15:03:58;7.70;99.90
17331;DHT22;8783;52.448;4.638;2024-02-26T15:06:25;7.70;99.90
17331;DHT22;8783;52.448;4.638;2024-02-26T15:08:51;7.70;99.90
17331;DHT22;8783;52.448;4.638;2024-02-26T15:11:17;7.70;99.90
17331;DHT22;8783;52.448;4.638;2024-02-26T15:13:43;7.70;99.90
17331;DHT22;8783;52.448;4.638;2024-02-26T15:16:08;7.70;99.90
17331;DHT22;8783;52.448;4.638;2024-02-26T15:18:36;7.70;99.90
17331;DHT22;8783;52.448;4.638;2024-02-26T15:21:02;7.70;99.90
17331;DHT22;8783;52.448;4.638;2024-02-26T15:23:28;7.70;99.90
17331;DHT22;8783;52.448;4.638;2024-02-26T15:25:54;7.70;99.90
17331;DHT22;8783;52.448;4.638;2024-02-26T15:28:22;7.70;99.90
17331;DHT22;8783;52.448;4.638;2024-02-26T15:30:50;7.70;99.90
17331;DHT22;8783;52.448;4.638;2024-02-26T15:33:16;7.70;99.90
17331;DHT22;8783;52.448;4.638;2024-02-26T15:35:42;7.70;99.90
17331;DHT22;8783;52.448;4.638;2024-02-26T15:38:10;7.70;99.90
17331;DHT22;8783;52.448;4.638;2024-02-26T15:40:36;7.70;99.90
17331;DHT22;8783;52.448;4.638;2024-02-26T15:43:01;7.70;99.90
17331;DHT22;8783;52.448;4.638;2024-02-26T15:45:27;7.70;99.90
17331;DHT22;8783;52.448;4.638;2024-02-26T15:47:57;7.60;99.90
17331;DHT22;8783;52.448;4.638;2024-02-26T15:50:23;7.70;99.90
17331;DHT22;8783;52.448;4.638;2024-02-26T15:52:49;7.70;99.90
17331;DHT22;8783;52.448;4.638;2024-02-26T15:55:14;7.60;99.90
17331;DHT22;8783;52.448;4.638;2024-02-26T15:57:43;7.60;99.90
17331;DHT22;8783;52.448;4.638;2024-02-26T16:00:10;7.50;99.90
17331;DHT22;8783;52.448;4.638;2024-02-26T16:02:36;7.50;99.90
17331;DHT22;8783;52.448;4.638;2024-02-26T16:05:06;7.50;99.90
17331;DHT22;8783;52.448;4.638;2024-02-26T16:07:53;7.50;99.90
17331;DHT22;8783;52.448;4.638;2024-02-26T16:10:19;7.50;99.90
17331;DHT22;8783;52.448;4.638;2024-02-26T16:12:53;7.50;99.90
17331;DHT22;8783;52.448;4.638;2024-02-26T16:15:21;7.50;99.90